createdAt,value
2022-08-03T00:00:24.073Z,1.83
2022-08-03T00:02:50.840Z,1.60
2022-08-03T00:05:17.582Z,1.60
2022-08-03T00:07:44.188Z,1.60
2022-08-03T00:10:12.643Z,1.50
2022-08-03T00:12:39.719Z,1.75
2022-08-03T00:15:10.408Z,1.70
2022-08-03T00:17:52.543Z,1.63
2022-08-03T00:20:21.245Z,1.50
2022-08-03T00:22:48.329Z,1.60
2022-08-03T00:25:15.053Z,1.42
2022-08-03T00:27:41.911Z,1.65
2022-08-03T00:30:08.926Z,1.60
2022-08-03T00:32:35.568Z,1.52
2022-08-03T00:35:08.015Z,1.63
2022-08-03T00:37:41.473Z,1.50
2022-08-03T00:40:11.273Z,1.45
2022-08-03T00:42:59.094Z,1.80
2022-08-03T00:45:36.524Z,1.45
2022-08-03T00:48:05.932Z,1.70
2022-08-03T00:50:54.169Z,1.50
2022-08-03T00:53:21.546Z,1.80
2022-08-03T00:55:48.281Z,1.70
2022-08-03T00:58:15.130Z,1.42
2022-08-03T01:00:41.849Z,1.55
2022-08-03T01:03:10.634Z,1.40
2022-08-03T01:05:55.994Z,1.50
2022-08-03T01:08:52.281Z,1.40
2022-08-03T01:12:01.231Z,1.20
2022-08-03T01:14:41.470Z,1.50
2022-08-03T01:17:39.599Z,1.30
2022-08-03T01:20:11.629Z,1.30
2022-08-03T01:23:03.160Z,1.50
2022-08-03T01:26:09.525Z,1.90
2022-08-03T01:28:44.759Z,1.80
2022-08-03T01:31:15.522Z,1.70
2022-08-03T01:33:50.061Z,1.60
2022-08-03T01:36:22.532Z,1.83
2022-08-03T01:38:58.673Z,1.58
2022-08-03T01:41:30.750Z,1.83
2022-08-03T01:44:29.378Z,1.90
2022-08-03T01:46:49.176Z,1.70
2022-08-03T01:49:17.388Z,2.00
2022-08-03T01:51:58.647Z,2.00
2022-08-03T01:57:00.001Z,2.20
2022-08-03T01:59:29.041Z,1.83
2022-08-03T02:02:16.013Z,1.88
2022-08-03T02:04:46.909Z,1.77
2022-08-03T02:07:16.145Z,2.00
2022-08-03T02:09:45.785Z,2.10
2022-08-03T02:12:14.921Z,1.80
2022-08-03T02:14:44.365Z,2.13
2022-08-03T02:17:12.845Z,1.92
2022-08-03T02:19:40.674Z,2.10
2022-08-03T02:22:11.524Z,2.00
2022-08-03T02:24:38.664Z,2.10
2022-08-03T02:27:22.938Z,1.83
2022-08-03T02:29:56.213Z,2.20
2022-08-03T02:32:29.310Z,1.90
2022-08-03T02:34:58.069Z,1.80
2022-08-03T02:37:30.864Z,2.20
2022-08-03T02:40:01.890Z,2.13
2022-08-03T02:42:30.276Z,2.20
2022-08-03T02:45:00.278Z,1.60
2022-08-03T02:47:29.135Z,1.70
2022-08-03T02:50:17.495Z,1.50
2022-08-03T02:52:47.854Z,1.98
2022-08-03T02:55:16.463Z,1.63
2022-08-03T02:57:46.431Z,1.70
2022-08-03T03:00:13.893Z,1.92
2022-08-03T03:02:59.530Z,1.48
2022-08-03T03:05:54.338Z,1.67
2022-08-03T03:08:20.639Z,1.50
2022-08-03T03:10:55.465Z,2.00
2022-08-03T03:13:22.850Z,1.60
2022-08-03T03:15:50.770Z,1.98
2022-08-03T03:18:21.877Z,1.83
2022-08-03T03:20:51.481Z,1.65
2022-08-03T03:23:19.234Z,1.73
2022-08-03T03:25:46.557Z,1.45
2022-08-03T03:28:13.757Z,1.65
2022-08-03T03:30:40.558Z,1.65
2022-08-03T03:33:07.575Z,1.90
2022-08-03T03:35:38.945Z,1.88
2022-08-03T03:38:07.205Z,2.00
2022-08-03T03:40:35.918Z,1.92
2022-08-03T03:43:03.249Z,1.50
2022-08-03T03:45:31.400Z,1.73
2022-08-03T03:48:00.646Z,1.52
2022-08-03T03:50:28.148Z,1.80
2022-08-03T03:52:54.885Z,2.03
2022-08-03T03:55:21.606Z,1.63
2022-08-03T03:57:48.258Z,1.73
2022-08-03T04:00:16.551Z,1.67
2022-08-03T04:02:43.572Z,1.60
2022-08-03T04:05:28.868Z,1.60
2022-08-03T04:08:18.116Z,1.70
2022-08-03T04:11:05.828Z,1.85
2022-08-03T04:13:44.137Z,1.98
2022-08-03T04:16:15.236Z,1.95
2022-08-03T04:18:45.007Z,1.90
2022-08-03T04:21:15.032Z,1.70
2022-08-03T04:23:45.947Z,2.13
2022-08-03T04:26:15.087Z,2.00
2022-08-03T04:28:45.892Z,2.10
2022-08-03T04:31:14.611Z,1.88
2022-08-03T04:33:43.613Z,1.92
2022-08-03T04:36:14.726Z,2.00
2022-08-03T04:39:05.522Z,2.15
2022-08-03T04:41:33.325Z,2.13
2022-08-03T04:44:28.583Z,2.30
2022-08-03T04:46:57.016Z,1.90
2022-08-03T04:49:26.026Z,1.55
2022-08-03T04:51:53.104Z,2.05
2022-08-03T04:54:19.837Z,1.70
2022-08-03T04:56:46.778Z,1.42
2022-08-03T04:59:14.005Z,1.60
2022-08-03T05:01:42.204Z,1.83
2022-08-03T05:04:09.406Z,1.60
2022-08-03T05:06:36.226Z,1.60
2022-08-03T05:09:08.387Z,1.75
2022-08-03T05:11:35.059Z,1.73
2022-08-03T05:14:01.732Z,1.50
2022-08-03T05:16:28.452Z,1.42
2022-08-03T05:18:55.094Z,2.10
2022-08-03T05:21:21.786Z,1.42
2022-08-03T05:23:48.427Z,1.67
2022-08-03T05:26:15.186Z,1.73
2022-08-03T05:28:51.301Z,1.65
2022-08-03T05:31:18.692Z,1.65
2022-08-03T05:33:45.316Z,1.75
2022-08-03T05:36:12.595Z,1.50
2022-08-03T05:38:39.561Z,1.95
2022-08-03T05:41:23.181Z,1.52
2022-08-03T05:43:54.847Z,1.40
2022-08-03T05:46:24.939Z,1.58
2022-08-03T05:48:52.111Z,1.40
2022-08-03T05:51:18.956Z,1.60
2022-08-03T05:53:46.084Z,1.40
2022-08-03T05:56:13.818Z,1.60
2022-08-03T05:58:42.926Z,1.50
2022-08-03T06:01:09.619Z,1.80
2022-08-03T06:03:36.286Z,1.50
2022-08-03T06:06:03.042Z,1.30
2022-08-03T06:08:29.654Z,1.50
2022-08-03T06:10:56.369Z,1.30
2022-08-03T06:13:23.124Z,1.70
2022-08-03T06:15:49.948Z,1.60
2022-08-03T06:18:16.560Z,1.55
2022-08-03T06:20:43.316Z,1.35
2022-08-03T06:23:16.006Z,1.52
2022-08-03T06:25:43.187Z,1.60
2022-08-03T06:28:19.130Z,1.40
2022-08-03T06:30:55.651Z,1.20
2022-08-03T06:33:22.357Z,1.60
2022-08-03T06:35:49.082Z,1.38
2022-08-03T06:38:15.753Z,1.70
2022-08-03T06:40:42.486Z,1.40
2022-08-03T06:43:12.652Z,1.40
2022-08-03T06:45:39.573Z,1.52
2022-08-03T06:48:08.299Z,1.27
2022-08-03T06:50:37.092Z,1.45
2022-08-03T06:53:04.346Z,1.38
2022-08-03T06:55:31.293Z,1.42
2022-08-03T06:57:59.811Z,1.40
2022-08-03T07:00:30.907Z,1.25
2022-08-03T07:02:58.470Z,1.40
2022-08-03T07:05:25.607Z,1.50
2022-08-03T07:07:56.736Z,1.40
2022-08-03T07:10:23.893Z,1.50
2022-08-03T07:12:55.653Z,1.60
2022-08-03T07:15:55.280Z,1.90
2022-08-03T07:18:10.468Z,1.55
2022-08-03T07:20:37.143Z,1.63
2022-08-03T07:23:04.020Z,1.30
2022-08-03T07:25:30.710Z,1.50
2022-08-03T07:27:57.392Z,1.20
2022-08-03T07:30:25.114Z,1.35
2022-08-03T07:32:51.826Z,1.45
2022-08-03T07:35:24.652Z,1.50
2022-08-03T07:37:54.198Z,1.38
2022-08-03T07:40:22.013Z,1.73
2022-08-03T07:42:53.409Z,1.90
2022-08-03T07:45:23.369Z,1.40
2022-08-03T07:47:53.612Z,1.70
2022-08-03T07:50:21.652Z,1.80
2022-08-03T07:52:49.295Z,1.50
2022-08-03T07:55:21.315Z,1.52
2022-08-03T07:57:59.209Z,1.65
2022-08-03T08:00:25.882Z,1.48
2022-08-03T08:02:52.590Z,1.40
2022-08-03T08:05:19.423Z,1.52
2022-08-03T08:07:51.054Z,1.60
2022-08-03T08:10:18.817Z,1.40
2022-08-03T08:12:45.765Z,1.33
2022-08-03T08:15:12.816Z,1.60
2022-08-03T08:17:47.818Z,1.60
2022-08-03T08:20:25.179Z,1.98
2022-08-03T08:23:02.846Z,1.55
2022-08-03T08:25:31.543Z,1.50
2022-08-03T08:28:29.014Z,1.88
2022-08-03T08:30:52.354Z,1.60
2022-08-03T08:33:23.147Z,2.10
2022-08-03T08:35:54.105Z,1.60
2022-08-03T08:38:21.779Z,1.55
2022-08-03T08:40:50.188Z,1.65
2022-08-03T08:43:16.834Z,1.90
2022-08-03T08:45:44.830Z,2.00
2022-08-03T08:48:13.843Z,1.65
2022-08-03T08:50:40.724Z,1.50
2022-08-03T08:53:11.633Z,1.48
2022-08-03T08:55:58.491Z,1.60
2022-08-03T08:58:30.246Z,1.80
2022-08-03T09:00:57.238Z,1.70
2022-08-03T09:03:30.303Z,1.90
2022-08-03T09:05:59.573Z,2.63
2022-08-03T09:08:26.300Z,1.70
2022-08-03T09:10:52.998Z,1.80
2022-08-03T09:13:19.664Z,1.80
2022-08-03T09:16:00.949Z,1.60
2022-08-03T09:18:32.561Z,1.50
2022-08-03T09:21:37.768Z,1.90
2022-08-03T09:24:12.961Z,1.80
2022-08-03T09:26:50.547Z,1.48
2022-08-03T09:29:20.942Z,1.50
2022-08-03T09:31:50.317Z,1.60
2022-08-03T09:34:18.007Z,1.58
2022-08-03T09:36:49.424Z,1.52
2022-08-03T09:39:17.133Z,1.50
2022-08-03T09:41:47.099Z,1.50
2022-08-03T09:44:24.143Z,1.60
2022-08-03T09:46:55.698Z,1.35
2022-08-03T09:49:23.193Z,1.40
2022-08-03T09:52:31.676Z,1.60
2022-08-03T09:54:37.223Z,1.58
2022-08-03T09:57:04.230Z,1.40
2022-08-03T09:59:33.310Z,1.60
2022-08-03T10:02:00.582Z,1.27
2022-08-03T10:04:27.366Z,1.80
2022-08-03T10:07:11.349Z,1.60
2022-08-03T10:09:38.461Z,1.23
2022-08-03T10:12:12.618Z,1.60
2022-08-03T10:14:41.731Z,1.60
2022-08-03T10:17:09.817Z,1.65
2022-08-03T10:19:36.666Z,1.52
2022-08-03T10:22:15.012Z,1.52
2022-08-03T10:25:00.045Z,1.40
2022-08-03T10:27:31.568Z,1.48
2022-08-03T10:30:04.754Z,1.42
2022-08-03T10:32:35.712Z,1.10
2022-08-03T10:35:20.112Z,1.50
2022-08-03T10:38:09.985Z,1.60
2022-08-03T10:40:57.256Z,1.70
2022-08-03T10:43:36.261Z,1.40
2022-08-03T10:46:06.750Z,1.50
2022-08-03T10:48:35.612Z,1.55
2022-08-03T10:51:03.406Z,1.60
2022-08-03T10:53:44.181Z,1.60
2022-08-03T10:56:52.312Z,1.48
2022-08-03T10:59:27.500Z,1.35
2022-08-03T11:02:00.182Z,1.90
2022-08-03T11:04:29.249Z,1.45
2022-08-03T11:07:15.998Z,1.45
2022-08-03T11:09:44.723Z,1.48
2022-08-03T11:12:32.126Z,1.40
2022-08-03T11:15:09.004Z,1.30
2022-08-03T11:17:46.228Z,1.63
2022-08-03T11:20:52.277Z,1.23
2022-08-03T11:24:05.017Z,1.45
2022-08-03T11:26:33.974Z,1.50
2022-08-03T11:29:29.430Z,1.38
2022-08-03T11:31:56.219Z,1.55
2022-08-03T11:34:24.373Z,1.52
2022-08-03T11:37:24.099Z,1.85
2022-08-03T11:39:54.656Z,1.60
2022-08-03T11:42:24.317Z,1.48
2022-08-03T11:44:55.970Z,1.42
2022-08-03T11:47:24.312Z,1.20
2022-08-03T11:49:53.774Z,1.60
2022-08-03T11:52:27.298Z,1.30
2022-08-03T11:54:57.189Z,1.50
2022-08-03T11:58:58.106Z,1.20
2022-08-03T12:00:28.399Z,1.70
2022-08-03T12:02:57.389Z,1.70
2022-08-03T12:06:04.712Z,1.42
2022-08-03T12:08:33.815Z,1.60
2022-08-03T12:11:04.453Z,1.45
2022-08-03T12:14:33.069Z,1.70
2022-08-03T12:16:28.791Z,1.60
2022-08-03T12:19:03.476Z,1.63
2022-08-03T12:21:30.567Z,1.50
2022-08-03T12:24:05.428Z,1.30
2022-08-03T12:26:44.989Z,1.67
2022-08-03T12:29:25.810Z,1.27
2022-08-03T12:31:52.544Z,1.60
2022-08-03T12:34:19.188Z,1.70
2022-08-03T12:36:53.759Z,1.70
2022-08-03T12:39:24.911Z,1.75
2022-08-03T12:41:56.350Z,1.45
2022-08-03T12:44:36.209Z,1.80
2022-08-03T12:47:06.606Z,1.35
2022-08-03T12:49:50.581Z,1.50
2022-08-03T12:52:18.943Z,1.45
2022-08-03T12:55:00.260Z,1.35
2022-08-03T12:57:43.852Z,1.42
2022-08-03T13:00:19.894Z,1.80
2022-08-03T13:03:38.636Z,1.25
2022-08-03T13:05:50.403Z,1.70
2022-08-03T13:08:43.949Z,1.67
2022-08-03T13:11:53.578Z,1.60
2022-08-03T13:14:20.220Z,1.60
2022-08-03T13:16:48.321Z,1.40
2022-08-03T13:19:15.486Z,1.80
2022-08-03T13:21:53.725Z,2.00
2022-08-03T13:24:30.540Z,1.52
2022-08-03T13:26:58.968Z,1.40
2022-08-03T13:29:25.694Z,1.60
2022-08-03T13:31:52.398Z,1.50
2022-08-03T13:34:23.079Z,1.48
2022-08-03T13:37:09.310Z,1.30
2022-08-03T13:44:50.195Z,1.70
2022-08-03T13:47:17.169Z,1.50
2022-08-03T13:49:54.164Z,2.08
2022-08-03T13:52:27.756Z,1.40
2022-08-03T13:54:54.589Z,1.38
2022-08-03T13:58:03.231Z,1.70
2022-08-03T14:00:09.841Z,1.52
2022-08-03T14:02:37.074Z,1.60
2022-08-03T14:05:04.187Z,1.50
2022-08-03T14:07:30.807Z,1.50
2022-08-03T14:09:57.429Z,1.50
2022-08-03T14:12:24.083Z,1.55
2022-08-03T14:14:50.746Z,1.65
2022-08-03T14:17:17.428Z,1.50
2022-08-03T14:19:52.775Z,1.70
2022-08-03T14:22:20.815Z,1.58
2022-08-03T14:24:47.602Z,1.50
2022-08-03T14:27:16.038Z,1.38
2022-08-03T14:29:42.757Z,1.50
2022-08-03T14:32:13.154Z,1.50
2022-08-03T14:34:40.943Z,1.60
2022-08-03T14:37:08.032Z,1.50
2022-08-03T14:42:21.709Z,1.20
2022-08-03T14:44:48.488Z,1.33
2022-08-03T14:47:15.216Z,1.50
2022-08-03T14:50:38.544Z,1.40
2022-08-03T14:52:29.205Z,1.40
2022-08-03T14:54:55.895Z,1.40
2022-08-03T14:57:22.662Z,1.48
2022-08-03T14:59:55.647Z,1.23
2022-08-03T15:02:25.431Z,1.20
2022-08-03T15:04:52.856Z,1.17
2022-08-03T15:07:20.706Z,1.15
2022-08-03T15:09:47.822Z,1.30
2022-08-03T15:12:14.534Z,1.40
2022-08-03T15:14:41.438Z,1.40
2022-08-03T15:17:08.261Z,1.60
2022-08-03T15:20:05.493Z,1.55
2022-08-03T15:22:24.889Z,1.50
2022-08-03T15:24:52.434Z,1.40
2022-08-03T15:27:19.357Z,1.30
2022-08-03T15:30:04.825Z,1.25
2022-08-03T15:32:36.000Z,1.40
2022-08-03T15:35:02.693Z,1.50
2022-08-03T15:37:29.455Z,1.40
2022-08-03T15:40:00.987Z,1.40
2022-08-03T15:42:32.675Z,1.67
2022-08-03T15:44:59.614Z,1.42
2022-08-03T15:47:26.517Z,1.52
2022-08-03T15:49:53.356Z,1.38
2022-08-03T15:52:20.036Z,1.52
2022-08-03T15:54:46.707Z,1.35
2022-08-03T15:57:13.373Z,1.30
2022-08-03T15:59:40.090Z,1.45
2022-08-03T16:02:06.877Z,1.35
2022-08-03T16:04:33.708Z,1.60
2022-08-03T16:07:00.449Z,1.73
2022-08-03T16:09:43.384Z,1.60
2022-08-03T16:12:14.509Z,1.40
2022-08-03T16:14:52.761Z,1.52
2022-08-03T16:17:21.125Z,1.40
2022-08-03T16:19:48.369Z,1.52
2022-08-03T16:22:17.293Z,1.40
2022-08-03T16:24:46.825Z,1.40
2022-08-03T16:27:36.633Z,1.45
2022-08-03T16:30:00.246Z,1.50
2022-08-03T16:32:26.914Z,1.65
2022-08-03T16:34:53.520Z,1.30
2022-08-03T16:37:38.293Z,1.48
2022-08-03T16:40:09.219Z,1.67
2022-08-03T16:42:44.417Z,1.50
2022-08-03T16:45:11.465Z,1.40
2022-08-03T16:47:38.345Z,1.52
2022-08-03T16:50:14.272Z,1.58
2022-08-03T16:52:46.974Z,1.30
2022-08-03T16:55:15.917Z,1.95
2022-08-03T16:57:59.798Z,1.40
2022-08-03T17:00:33.206Z,1.40
2022-08-03T17:03:04.088Z,1.70
2022-08-03T17:05:43.797Z,1.45
2022-08-03T17:08:15.637Z,1.63
2022-08-03T17:10:45.146Z,1.30
2022-08-03T17:13:21.698Z,1.48
2022-08-03T17:15:57.616Z,1.55
2022-08-03T17:18:32.300Z,1.70
2022-08-03T17:21:03.424Z,1.60
2022-08-03T17:24:01.753Z,1.60
2022-08-03T17:26:31.141Z,1.48
2022-08-03T17:29:12.528Z,1.60
2022-08-03T17:31:44.567Z,1.33
2022-08-03T17:34:18.916Z,1.65
2022-08-03T17:37:04.047Z,1.35
2022-08-03T17:39:56.858Z,1.52
2022-08-03T17:45:07.652Z,2.03
2022-08-03T17:47:42.858Z,1.85
2022-08-03T17:50:25.404Z,2.13
2022-08-03T17:53:07.429Z,1.80
2022-08-03T17:55:54.958Z,1.70
2022-08-03T17:58:38.426Z,1.52
2022-08-03T18:02:00.628Z,1.60
2022-08-03T18:04:30.426Z,1.92
2022-08-03T18:06:58.939Z,1.45
2022-08-03T18:10:04.422Z,1.83
2022-08-03T18:12:27.151Z,1.60
2022-08-03T18:17:55.603Z,1.75
2022-08-03T18:20:34.731Z,1.98
2022-08-03T18:23:08.857Z,1.80
2022-08-03T18:25:45.468Z,1.85
2022-08-03T18:28:29.314Z,1.75
2022-08-03T18:30:56.835Z,1.90
2022-08-03T18:34:16.593Z,1.88
2022-08-03T18:36:18.142Z,2.05
2022-08-03T18:38:51.819Z,1.98
2022-08-03T18:41:32.619Z,1.73
2022-08-03T18:44:08.747Z,2.05
2022-08-03T18:47:06.886Z,1.60
2022-08-03T18:50:09.481Z,1.80
2022-08-03T18:52:54.542Z,2.08
2022-08-03T18:55:33.745Z,2.22
2022-08-03T18:58:17.854Z,1.70
2022-08-03T19:01:57.378Z,2.33
2022-08-03T19:04:05.534Z,2.10
2022-08-03T19:06:38.442Z,2.05
2022-08-03T19:09:09.453Z,1.95
2022-08-03T19:12:26.180Z,2.17
2022-08-03T19:14:49.443Z,2.05
2022-08-03T19:17:21.391Z,1.90
2022-08-03T19:20:05.919Z,2.00
2022-08-03T19:22:33.854Z,2.17
2022-08-03T19:25:04.554Z,1.88
2022-08-03T19:27:35.133Z,2.28
2022-08-03T19:30:09.978Z,2.47
2022-08-03T19:32:48.405Z,2.50
2022-08-03T19:35:18.769Z,2.70
2022-08-03T19:37:46.698Z,2.10
2022-08-03T19:40:14.138Z,2.58
2022-08-03T19:42:51.737Z,2.17
2022-08-03T19:46:04.523Z,2.10
2022-08-03T19:48:16.324Z,2.13
2022-08-03T19:50:44.784Z,2.55
2022-08-03T19:53:13.051Z,2.08
2022-08-03T19:55:49.195Z,2.28
2022-08-03T19:58:24.356Z,2.38
2022-08-03T20:00:55.787Z,2.53
2022-08-03T20:03:26.130Z,2.47
2022-08-03T20:05:57.165Z,2.63
2022-08-03T20:08:29.470Z,2.30
2022-08-03T20:10:56.822Z,2.55
2022-08-03T20:13:24.246Z,2.47
2022-08-03T20:15:55.157Z,2.50
2022-08-03T20:18:23.802Z,2.50
2022-08-03T20:20:52.595Z,2.47
2022-08-03T20:23:20.461Z,2.90
2022-08-03T20:25:58.516Z,2.72
2022-08-03T20:28:33.120Z,3.33
2022-08-03T20:31:01.738Z,3.15
2022-08-03T20:33:46.326Z,2.50
2022-08-03T20:36:17.702Z,2.60
2022-08-03T20:38:47.016Z,2.92
2022-08-03T20:41:15.198Z,3.60
2022-08-03T20:43:42.067Z,3.28
2022-08-03T20:46:37.240Z,2.70
2022-08-03T20:48:58.732Z,2.60
2022-08-03T20:51:49.698Z,2.30
2022-08-03T20:57:00.347Z,2.30
2022-08-03T20:59:36.592Z,2.78
2022-08-03T21:02:05.699Z,3.13
2022-08-03T21:04:32.501Z,2.80
2022-08-03T21:07:16.342Z,3.00
2022-08-03T21:09:55.858Z,3.05
2022-08-03T21:12:41.347Z,2.97
2022-08-03T21:12:57.371Z,1.50
2022-08-03T21:13:04.654Z,1.70
2022-08-03T21:15:10.430Z,2.92
2022-08-03T21:18:00.218Z,2.58
2022-08-03T21:20:30.753Z,2.67
2022-08-03T21:22:58.502Z,3.28
2022-08-03T21:25:27.427Z,3.60
2022-08-03T21:27:54.381Z,3.33
2022-08-03T21:30:22.917Z,3.30
2022-08-03T21:32:52.734Z,2.92
2022-08-03T21:35:20.412Z,3.10
2022-08-03T21:37:47.615Z,2.78
2022-08-03T21:40:16.466Z,2.90
2022-08-03T21:42:45.370Z,3.22
2022-08-03T21:45:17.059Z,3.08
2022-08-03T21:47:45.077Z,3.00
2022-08-03T21:50:13.191Z,3.00
2022-08-03T21:52:45.393Z,3.17
2022-08-03T21:55:20.671Z,2.75
2022-08-03T21:57:53.341Z,2.93
2022-08-03T22:00:23.047Z,2.70
2022-08-03T22:02:56.064Z,2.80
2022-08-03T22:05:42.422Z,2.42
2022-08-03T22:08:14.006Z,3.07
2022-08-03T22:10:43.917Z,3.10
2022-08-03T22:13:12.793Z,2.80
2022-08-03T22:15:40.200Z,3.20
2022-08-03T22:18:06.910Z,3.00
2022-08-03T22:20:33.591Z,2.83
2022-08-03T22:23:06.395Z,2.80
2022-08-03T22:25:38.267Z,3.03
2022-08-03T22:28:09.985Z,3.05
2022-08-03T22:30:37.965Z,3.10
2022-08-03T22:33:11.530Z,3.00
2022-08-03T22:35:48.488Z,2.60
2022-08-03T22:43:09.192Z,3.45
2022-08-03T22:46:06.295Z,3.30
2022-08-03T22:48:23.129Z,3.35
2022-08-03T22:50:50.064Z,3.33
2022-08-03T22:53:21.788Z,3.08
2022-08-03T22:55:49.848Z,3.90
2022-08-03T22:58:17.517Z,3.63
2022-08-03T23:01:02.828Z,2.92
2022-08-03T23:04:00.897Z,2.80
2022-08-03T23:06:23.293Z,3.83
2022-08-03T23:08:50.794Z,2.42
2022-08-03T23:11:18.781Z,2.75
2022-08-03T23:13:49.197Z,2.75
2022-08-03T23:16:27.792Z,2.67
2022-08-03T23:18:58.754Z,3.03
2022-08-03T23:21:53.402Z,2.78
2022-08-03T23:24:25.967Z,3.10
2022-08-03T23:26:56.981Z,3.00
2022-08-03T23:29:24.345Z,3.10
2022-08-03T23:31:53.489Z,2.80
2022-08-03T23:34:39.834Z,2.83
2022-08-03T23:37:06.702Z,3.13
2022-08-03T23:39:34.972Z,3.08
2022-08-03T23:42:02.962Z,2.80
2022-08-03T23:44:31.177Z,3.25
2022-08-03T23:46:57.863Z,2.50
2022-08-03T23:49:24.522Z,2.70
2022-08-03T23:52:25.332Z,2.65
2022-08-03T23:55:12.933Z,2.47
2022-08-03T23:58:01.310Z,2.65
